Time;durP1;ratioP1;P1;durP2;ratioP2;P2;SDS_P1;SDS_P2;PMS_P1;PMS_P2;Temp;Humidity;BMP_temperature;BMP_pressure;BME280_temperature;BME280_humidity;BME280_pressure;Samples;Min_cycle;Max_cycle;Signal;HPM_P1;HPM_P2
2023/07/09 00:01:53;;;;;;;5.57;5.18;;;;;;;;;;5100765;28;20265;-65
2023/07/09 00:04:21;;;;;;;5.35;4.85;;;;;;;;;;5100625;28;20532;-67
2023/07/09 00:06:49;;;;;;;5.55;5.15;;;;;;;;;;5100257;28;20279;-65
2023/07/09 00:09:20;;;;;;;5.82;5.32;;;;;;;;;;5100467;28;20204;-66
2023/07/09 00:11:47;;;;;;;5.13;4.80;;;;;;;;;;5101072;28;20483;-65
2023/07/09 00:14:16;;;;;;;5.47;5.07;;;;;;;;;;5100404;28;20204;-65
2023/07/09 00:16:48;;;;;;;5.13;4.72;;;;;;;;;;5100466;28;20211;-65
2023/07/09 00:19:17;;;;;;;5.20;4.80;;;;;;;;;;5100188;28;20207;-65
2023/07/09 00:21:45;;;;;;;5.18;4.80;;;;;;;;;;5100445;28;20598;-66
2023/07/09 00:24:13;;;;;;;5.18;4.78;;;;;;;;;;5100261;28;20212;-65
2023/07/09 00:26:41;;;;;;;5.25;4.85;;;;;;;;;;5100785;28;20211;-66
2023/07/09 00:29:11;;;;;;;5.30;4.90;;;;;;;;;;5100233;28;20292;-65
2023/07/09 00:31:40;;;;;;;4.90;4.60;;;;;;;;;;5100320;28;20215;-65
2023/07/09 00:34:11;;;;;;;5.28;4.88;;;;;;;;;;5100410;28;20286;-66
2023/07/09 00:36:39;;;;;;;5.03;4.55;;;;;;;;;;5100137;28;20268;-66
2023/07/09 00:39:13;;;;;;;4.70;4.40;;;;;;;;;;5100044;28;20292;-65
2023/07/09 00:41:41;;;;;;;4.95;4.55;;;;;;;;;;5099921;28;20211;-65
2023/07/09 00:44:28;;;;;;;4.90;4.50;;;;;;;;;;5099705;28;20529;-65
2023/07/09 00:47:24;;;;;;;5.35;4.95;;;;;;;;;;5100186;28;20211;-65
2023/07/09 00:49:58;;;;;;;5.57;5.18;;;;;;;;;;5053574;28;20538;-65
2023/07/09 00:52:29;;;;;;;4.95;4.55;;;;;;;;;;5099976;28;20211;-65
2023/07/09 00:54:58;;;;;;;5.10;4.70;;;;;;;;;;5099989;28;20275;-65
2023/07/09 00:57:27;;;;;;;5.25;4.85;;;;;;;;;;5100138;28;20227;-65
2023/07/09 00:59:58;;;;;;;5.20;4.80;;;;;;;;;;5100167;28;20203;-67
2023/07/09 01:02:26;;;;;;;5.43;5.00;;;;;;;;;;5099586;28;20206;-65
2023/07/09 01:05:00;;;;;;;5.85;5.45;;;;;;;;;;5099968;28;20210;-66
2023/07/09 01:07:28;;;;;;;5.63;5.15;;;;;;;;;;5099808;28;20223;-66
2023/07/09 01:09:56;;;;;;;6.53;5.93;;;;;;;;;;5099836;28;20621;-66
2023/07/09 01:12:24;;;;;;;6.20;5.70;;;;;;;;;;5100002;28;20208;-65
2023/07/09 01:14:54;;;;;;;6.15;5.75;;;;;;;;;;5099485;28;20207;-66
2023/07/09 01:17:22;;;;;;;6.50;6.00;;;;;;;;;;5099585;28;20298;-66
2023/07/09 01:19:52;;;;;;;7.25;6.65;;;;;;;;;;5099300;28;20247;-65
2023/07/09 01:22:22;;;;;;;6.60;6.10;;;;;;;;;;5099477;28;20305;-65
2023/07/09 01:24:52;;;;;;;6.93;6.20;;;;;;;;;;5099685;28;20203;-65
2023/07/09 01:27:21;;;;;;;6.93;6.32;;;;;;;;;;5099371;28;20211;-65
2023/07/09 01:29:50;;;;;;;6.80;6.30;;;;;;;;;;5099145;28;20203;-65
2023/07/09 01:32:19;;;;;;;6.57;6.00;;;;;;;;;;5099508;28;20204;-65
2023/07/09 01:34:48;;;;;;;7.03;6.43;;;;;;;;;;5099234;28;20216;-65
2023/07/09 01:37:16;;;;;;;7.10;6.50;;;;;;;;;;5099121;28;20204;-65
2023/07/09 01:39:46;;;;;;;6.20;5.70;;;;;;;;;;5099369;28;20214;-65
2023/07/09 01:42:13;;;;;;;6.00;5.60;;;;;;;;;;5099480;28;20311;-65
2023/07/09 01:44:41;;;;;;;6.22;5.72;;;;;;;;;;5098476;28;20210;-65
2023/07/09 01:47:10;;;;;;;6.50;6.00;;;;;;;;;;5098742;28;20208;-65
2023/07/09 01:49:39;;;;;;;6.15;5.75;;;;;;;;;;5098917;28;20203;-65
2023/07/09 01:52:09;;;;;;;6.55;6.03;;;;;;;;;;5098887;28;20212;-65
2023/07/09 01:54:37;;;;;;;6.10;5.70;;;;;;;;;;5098577;28;20232;-65
2023/07/09 01:57:19;;;;;;;6.03;5.53;;;;;;;;;;5098734;28;20277;-65
2023/07/09 01:59:47;;;;;;;6.30;5.82;;;;;;;;;;5098813;28;20491;-65
2023/07/09 02:02:18;;;;;;;5.60;5.20;;;;;;;;;;5098402;28;20485;-65
2023/07/09 02:04:46;;;;;;;5.97;5.47;;;;;;;;;;5098764;28;20231;-65
2023/07/09 02:07:14;;;;;;;5.57;5.18;;;;;;;;;;5098136;28;20210;-65
2023/07/09 02:09:42;;;;;;;5.65;5.22;;;;;;;;;;5098209;28;20203;-65
2023/07/09 02:12:10;;;;;;;6.00;5.60;;;;;;;;;;5098445;28;20524;-65
2023/07/09 02:14:40;;;;;;;5.43;4.97;;;;;;;;;;5098383;28;20283;-65
2023/07/09 02:17:08;;;;;;;5.65;5.25;;;;;;;;;;5098206;28;20243;-65
2023/07/09 02:19:36;;;;;;;5.78;5.22;;;;;;;;;;5098366;28;20253;-66
2023/07/09 02:22:04;;;;;;;5.63;5.22;;;;;;;;;;5098430;28;20203;-65
2023/07/09 02:24:32;;;;;;;5.15;4.75;;;;;;;;;;5098105;28;20203;-66
2023/07/09 02:27:01;;;;;;;5.55;5.15;;;;;;;;;;5098468;28;20211;-65
2023/07/09 02:29:29;;;;;;;5.40;5.00;;;;;;;;;;5098206;28;20234;-66
2023/07/09 02:31:59;;;;;;;5.20;4.80;;;;;;;;;;5098140;28;20276;-65
2023/07/09 02:34:27;;;;;;;5.43;5.03;;;;;;;;;;5098160;28;20235;-65
2023/07/09 02:36:56;;;;;;;5.57;5.18;;;;;;;;;;5098342;28;20204;-65
2023/07/09 02:39:24;;;;;;;5.38;4.88;;;;;;;;;;5098575;28;20211;-65
2023/07/09 02:41:52;;;;;;;4.93;4.53;;;;;;;;;;5098424;28;20211;-65
2023/07/09 02:44:20;;;;;;;4.80;4.43;;;;;;;;;;5098378;28;20231;-65
2023/07/09 02:46:48;;;;;;;5.45;5.05;;;;;;;;;;5098247;28;20204;-65
2023/07/09 02:49:18;;;;;;;5.30;4.90;;;;;;;;;;5097935;28;20227;-65
2023/07/09 02:51:46;;;;;;;4.90;4.57;;;;;;;;;;5098158;28;20590;-65
2023/07/09 02:54:14;;;;;;;5.18;4.78;;;;;;;;;;5097805;28;20537;-65
2023/07/09 02:56:42;;;;;;;5.45;5.05;;;;;;;;;;5098257;28;20299;-65
2023/07/09 02:59:11;;;;;;;5.00;4.70;;;;;;;;;;5098183;28;20210;-65
2023/07/09 03:01:39;;;;;;;5.03;4.63;;;;;;;;;;5097804;28;20575;-72
2023/07/09 03:04:08;;;;;;;4.93;4.53;;;;;;;;;;5097896;28;20224;-65
2023/07/09 03:06:38;;;;;;;4.90;4.60;;;;;;;;;;5097830;28;20203;-65
2023/07/09 03:09:06;;;;;;;4.97;4.63;;;;;;;;;;5097545;28;20281;-65
2023/07/09 03:11:34;;;;;;;5.13;4.82;;;;;;;;;;5097993;28;20599;-65
2023/07/09 03:14:02;;;;;;;4.93;4.60;;;;;;;;;;5097493;28;20203;-65
2023/07/09 03:16:31;;;;;;;5.03;4.65;;;;;;;;;;5097825;28;20558;-65
2023/07/09 03:19:00;;;;;;;5.05;4.65;;;;;;;;;;5097645;28;20199;-65
2023/07/09 03:21:28;;;;;;;4.80;4.40;;;;;;;;;;5097736;28;20534;-65
2023/07/09 03:23:58;;;;;;;4.80;4.38;;;;;;;;;;5097679;28;20211;-65
2023/07/09 03:26:26;;;;;;;4.78;4.47;;;;;;;;;;5097686;28;20298;-65
2023/07/09 03:28:54;;;;;;;4.70;4.30;;;;;;;;;;5097839;28;20240;-65
2023/07/09 03:31:22;;;;;;;5.05;4.63;;;;;;;;;;5097358;28;20740;-65
2023/07/09 03:33:50;;;;;;;4.95;4.55;;;;;;;;;;5097675;28;20203;-65
2023/07/09 03:36:18;;;;;;;5.40;5.00;;;;;;;;;;5097223;28;20214;-65
2023/07/09 03:38:46;;;;;;;4.72;4.38;;;;;;;;;;5097084;28;20207;-65
2023/07/09 03:41:15;;;;;;;5.18;4.78;;;;;;;;;;5097248;28;20559;-65
2023/07/09 03:43:43;;;;;;;4.70;4.35;;;;;;;;;;5097256;28;20203;-65
2023/07/09 03:46:11;;;;;;;4.90;4.50;;;;;;;;;;5097476;28;20601;-65
2023/07/09 03:48:38;;;;;;;5.20;4.80;;;;;;;;;;5097557;28;20288;-65
2023/07/09 03:51:06;;;;;;;5.20;4.72;;;;;;;;;;5097513;28;20567;-65
2023/07/09 03:53:34;;;;;;;5.13;4.72;;;;;;;;;;5097095;28;20316;-65
2023/07/09 03:56:02;;;;;;;4.63;4.32;;;;;;;;;;5097385;28;20285;-65
2023/07/09 03:58:31;;;;;;;4.60;4.30;;;;;;;;;;5097355;28;20204;-65
2023/07/09 04:00:59;;;;;;;4.75;4.45;;;;;;;;;;5097010;28;20597;-66
2023/07/09 04:03:27;;;;;;;4.88;4.57;;;;;;;;;;5096978;28;20564;-65
2023/07/09 04:05:54;;;;;;;4.85;4.45;;;;;;;;;;5097124;28;20665;-65
2023/07/09 04:08:22;;;;;;;5.10;4.70;;;;;;;;;;5097401;28;20231;-65
2023/07/09 04:10:49;;;;;;;4.75;4.45;;;;;;;;;;5097228;28;20247;-65
2023/07/09 04:13:17;;;;;;;4.65;4.25;;;;;;;;;;5097079;28;20282;-65
2023/07/09 04:15:46;;;;;;;4.85;4.45;;;;;;;;;;5097515;28;20203;-65
2023/07/09 04:18:14;;;;;;;5.00;4.70;;;;;;;;;;5096857;28;20595;-65
2023/07/09 04:20:41;;;;;;;5.10;4.70;;;;;;;;;;5097467;28;20606;-65
2023/07/09 04:23:10;;;;;;;5.13;4.75;;;;;;;;;;5096343;28;20563;-65
2023/07/09 04:25:38;;;;;;;4.78;4.47;;;;;;;;;;5097770;28;20208;-65
2023/07/09 04:28:06;;;;;;;5.03;4.65;;;;;;;;;;5100807;28;20798;-65
2023/07/09 04:30:34;;;;;;;4.65;4.30;;;;;;;;;;5100718;28;20211;-65
2023/07/09 04:33:03;;;;;;;5.05;4.65;;;;;;;;;;5100779;28;20212;-65
2023/07/09 04:35:30;;;;;;;4.70;4.40;;;;;;;;;;5100616;28;20603;-65
2023/07/09 04:37:58;;;;;;;5.22;4.80;;;;;;;;;;5100212;28;20204;-66
2023/07/09 04:40:26;;;;;;;5.30;4.90;;;;;;;;;;5100052;28;20294;-65
2023/07/09 04:42:54;;;;;;;5.18;4.78;;;;;;;;;;5100464;28;20217;-65
2023/07/09 04:45:21;;;;;;;5.30;4.90;;;;;;;;;;5100274;28;20687;-65
2023/07/09 04:47:49;;;;;;;5.07;4.72;;;;;;;;;;5099916;28;20466;-65
2023/07/09 04:50:18;;;;;;;5.28;4.88;;;;;;;;;;5100225;28;20318;-66
2023/07/09 04:52:46;;;;;;;4.90;4.55;;;;;;;;;;5100112;28;20302;-65
2023/07/09 04:55:13;;;;;;;5.50;5.10;;;;;;;;;;5100133;28;20258;-65
2023/07/09 04:57:41;;;;;;;5.35;4.95;;;;;;;;;;5099860;28;20258;-64
2023/07/09 05:00:09;;;;;;;5.05;4.70;;;;;;;;;;5099673;28;20292;-65
2023/07/09 05:02:36;;;;;;;5.05;4.75;;;;;;;;;;5099718;28;20235;-65
2023/07/09 05:05:04;;;;;;;5.18;4.78;;;;;;;;;;5099861;28;20209;-65
2023/07/09 05:07:33;;;;;;;5.20;4.80;;;;;;;;;;5099375;28;20603;-65
2023/07/09 05:10:01;;;;;;;5.47;4.97;;;;;;;;;;5099179;28;20318;-65
2023/07/09 05:12:28;;;;;;;5.47;5.03;;;;;;;;;;5099598;28;20238;-65
2023/07/09 05:14:56;;;;;;;4.85;4.55;;;;;;;;;;5099677;28;20215;-65
2023/07/09 05:17:24;;;;;;;5.28;4.88;;;;;;;;;;5099848;28;20208;-65
2023/07/09 05:19:51;;;;;;;5.05;4.65;;;;;;;;;;5099050;28;20204;-65
2023/07/09 05:22:19;;;;;;;4.95;4.63;;;;;;;;;;5099509;28;20203;-65
2023/07/09 05:24:48;;;;;;;5.10;4.70;;;;;;;;;;5099375;28;20201;-65
2023/07/09 05:27:15;;;;;;;5.32;4.93;;;;;;;;;;5099273;28;20204;-65
2023/07/09 05:29:43;;;;;;;5.45;5.05;;;;;;;;;;5099030;28;20223;-65
2023/07/09 05:32:10;;;;;;;5.15;4.80;;;;;;;;;;5098905;28;20211;-65
2023/07/09 05:34:38;;;;;;;5.20;4.80;;;;;;;;;;5099066;28;20587;-65
2023/07/09 05:37:05;;;;;;;5.70;5.30;;;;;;;;;;5098652;28;20200;-65
2023/07/09 05:39:33;;;;;;;5.40;5.00;;;;;;;;;;5098822;28;20207;-65
2023/07/09 05:42:01;;;;;;;5.15;4.75;;;;;;;;;;5098864;28;20204;-65
2023/07/09 05:44:29;;;;;;;5.40;5.00;;;;;;;;;;5098827;28;20510;-65
2023/07/09 05:46:56;;;;;;;5.15;4.75;;;;;;;;;;5098686;28;20302;-65
2023/07/09 05:49:24;;;;;;;5.32;5.03;;;;;;;;;;5098540;28;20231;-65
2023/07/09 05:51:52;;;;;;;5.15;4.75;;;;;;;;;;5098559;28;20230;-65
2023/07/09 05:54:19;;;;;;;4.95;4.60;;;;;;;;;;5099195;28;20570;-65
2023/07/09 05:56:47;;;;;;;5.38;4.97;;;;;;;;;;5098689;28;20222;-66
2023/07/09 05:59:16;;;;;;;5.10;4.80;;;;;;;;;;5098791;28;20265;-65
2023/07/09 06:01:43;;;;;;;5.25;4.85;;;;;;;;;;5098334;28;20718;-68
2023/07/09 06:04:13;;;;;;;4.90;4.60;;;;;;;;;;5098317;28;20254;-65
2023/07/09 06:06:42;;;;;;;5.45;5.00;;;;;;;;;;5098244;28;20204;-65
2023/07/09 06:09:09;;;;;;;5.63;5.22;;;;;;;;;;5098543;28;20235;-65
2023/07/09 06:11:37;;;;;;;5.35;4.95;;;;;;;;;;5098328;28;20207;-65
2023/07/09 06:14:04;;;;;;;4.95;4.55;;;;;;;;;;5098164;28;20521;-66
2023/07/09 06:16:33;;;;;;;5.20;4.80;;;;;;;;;;5098236;28;20218;-65
2023/07/09 06:19:01;;;;;;;5.50;5.07;;;;;;;;;;5097468;28;20238;-66
2023/07/09 06:21:28;;;;;;;5.10;4.80;;;;;;;;;;5097373;28;20600;-65
2023/07/09 06:23:56;;;;;;;5.30;4.90;;;;;;;;;;5097838;28;20211;-65
2023/07/09 06:26:23;;;;;;;5.85;5.30;;;;;;;;;;5098016;28;20214;-66
2023/07/09 06:28:50;;;;;;;5.60;5.20;;;;;;;;;;5098293;28;20203;-65
2023/07/09 06:31:20;;;;;;;5.35;4.95;;;;;;;;;;5098108;28;20204;-66
2023/07/09 06:33:49;;;;;;;4.97;4.68;;;;;;;;;;5097948;28;20208;-65
2023/07/09 06:36:18;;;;;;;5.40;5.00;;;;;;;;;;5097803;28;20200;-65
2023/07/09 06:38:45;;;;;;;5.28;4.88;;;;;;;;;;5097946;28;20195;-65
2023/07/09 06:41:13;;;;;;;5.13;4.72;;;;;;;;;;5098276;28;20311;-66
2023/07/09 06:43:40;;;;;;;5.10;4.70;;;;;;;;;;5097799;28;20585;-65
2023/07/09 06:46:11;;;;;;;5.05;4.75;;;;;;;;;;5097185;28;20227;-66
2023/07/09 06:48:38;;;;;;;5.05;4.75;;;;;;;;;;5096658;28;20216;-65
2023/07/09 06:51:07;;;;;;;5.22;4.82;;;;;;;;;;5097352;28;20494;-65
2023/07/09 06:53:36;;;;;;;5.40;5.00;;;;;;;;;;5097596;28;20527;-65
2023/07/09 06:56:03;;;;;;;5.13;4.72;;;;;;;;;;5097468;28;20207;-65
2023/07/09 06:58:33;;;;;;;5.30;4.90;;;;;;;;;;5097413;28;20207;-65
2023/07/09 07:01:06;;;;;;;5.07;4.75;;;;;;;;;;5097279;28;20199;-65
2023/07/09 07:03:33;;;;;;;4.93;4.63;;;;;;;;;;5097171;28;20203;-66
2023/07/09 07:06:01;;;;;;;4.80;4.50;;;;;;;;;;5097184;28;20214;-65
2023/07/09 07:08:30;;;;;;;5.13;4.78;;;;;;;;;;5097187;28;20289;-65
2023/07/09 07:11:02;;;;;;;4.70;4.30;;;;;;;;;;5097535;28;20630;-65
2023/07/09 07:13:30;;;;;;;5.22;4.82;;;;;;;;;;5097195;28;20210;-66
2023/07/09 07:15:58;;;;;;;5.20;4.80;;;;;;;;;;5097250;28;20207;-65
2023/07/09 07:18:25;;;;;;;5.03;4.63;;;;;;;;;;5097255;28;20266;-65
2023/07/09 07:20:53;;;;;;;5.28;4.88;;;;;;;;;;5097275;28;20587;-65
2023/07/09 07:23:21;;;;;;;4.88;4.47;;;;;;;;;;5097176;28;20473;-65
2023/07/09 07:25:50;;;;;;;4.53;4.22;;;;;;;;;;5096882;28;20207;-65
2023/07/09 07:28:18;;;;;;;4.70;4.40;;;;;;;;;;5096506;28;20216;-66
2023/07/09 07:30:45;;;;;;;5.00;4.60;;;;;;;;;;5096836;28;20314;-65
2023/07/09 07:33:15;;;;;;;5.05;4.65;;;;;;;;;;5096990;28;20203;-66
2023/07/09 07:35:43;;;;;;;4.90;4.55;;;;;;;;;;5096999;28;20207;-65
2023/07/09 07:38:10;;;;;;;4.75;4.45;;;;;;;;;;5096080;28;20215;-65
2023/07/09 07:40:38;;;;;;;4.75;4.45;;;;;;;;;;5096527;28;20199;-66
2023/07/09 07:43:07;;;;;;;4.60;4.30;;;;;;;;;;5096750;28;20195;-65
2023/07/09 07:45:34;;;;;;;4.90;4.60;;;;;;;;;;5096831;28;20203;-65
2023/07/09 07:48:02;;;;;;;5.25;4.85;;;;;;;;;;5096760;28;20211;-65
2023/07/09 07:50:30;;;;;;;4.97;4.57;;;;;;;;;;5096885;28;20230;-66
2023/07/09 07:52:58;;;;;;;5.00;4.60;;;;;;;;;;5096626;28;20595;-65
2023/07/09 07:55:25;;;;;;;4.63;4.32;;;;;;;;;;5096916;28;20498;-66
2023/07/09 07:57:53;;;;;;;4.93;4.55;;;;;;;;;;5096349;28;20211;-66
2023/07/09 08:00:21;;;;;;;4.72;4.43;;;;;;;;;;5098660;28;20484;-65
2023/07/09 08:02:49;;;;;;;4.47;4.18;;;;;;;;;;5100309;28;20594;-65
2023/07/09 08:05:16;;;;;;;4.88;4.53;;;;;;;;;;5100745;28;20211;-65
2023/07/09 08:07:44;;;;;;;4.93;4.55;;;;;;;;;;5100752;28;20221;-66
2023/07/09 08:10:12;;;;;;;5.45;5.03;;;;;;;;;;5100983;28;20271;-65
2023/07/09 08:12:39;;;;;;;4.85;4.53;;;;;;;;;;5099814;28;20204;-65
2023/07/09 08:15:08;;;;;;;4.65;4.28;;;;;;;;;;5100058;28;20204;-65
2023/07/09 08:17:36;;;;;;;5.07;4.68;;;;;;;;;;5100370;28;20238;-65
2023/07/09 08:20:04;;;;;;;4.80;4.50;;;;;;;;;;5100655;28;20437;-65
2023/07/09 08:22:32;;;;;;;5.28;4.88;;;;;;;;;;5099907;28;20582;-66
2023/07/09 08:24:59;;;;;;;5.05;4.68;;;;;;;;;;5099743;28;20634;-65
2023/07/09 08:27:27;;;;;;;4.95;4.55;;;;;;;;;;5099770;28;20568;-65
2023/07/09 08:29:54;;;;;;;4.97;4.68;;;;;;;;;;5100091;28;20625;-65
2023/07/09 08:32:21;;;;;;;5.10;4.70;;;;;;;;;;5099768;28;20207;-65
2023/07/09 08:34:50;;;;;;;4.43;4.13;;;;;;;;;;5099207;28;20264;-65
2023/07/09 08:37:18;;;;;;;4.88;4.57;;;;;;;;;;5100044;28;20227;-65
2023/07/09 08:39:45;;;;;;;4.90;4.50;;;;;;;;;;5099596;28;20229;-65
2023/07/09 08:42:15;;;;;;;4.97;4.57;;;;;;;;;;5099546;28;20204;-66
2023/07/09 08:44:55;;;;;;;4.80;4.50;;;;;;;;;;5099660;28;20204;-65
2023/07/09 08:47:28;;;;;;;4.63;4.32;;;;;;;;;;5099085;28;20200;-67
2023/07/09 08:49:58;;;;;;;5.20;4.85;;;;;;;;;;5099097;28;20231;-66
2023/07/09 08:52:27;;;;;;;4.63;4.32;;;;;;;;;;5099358;28;20290;-65
2023/07/09 08:54:56;;;;;;;5.60;5.20;;;;;;;;;;5098995;28;20239;-66
2023/07/09 08:57:25;;;;;;;4.97;4.57;;;;;;;;;;5098831;28;20204;-66
2023/07/09 08:59:56;;;;;;;4.93;4.53;;;;;;;;;;5099239;28;20306;-66
2023/07/09 09:02:29;;;;;;;5.22;4.85;;;;;;;;;;5099183;28;20231;-66
2023/07/09 09:04:58;;;;;;;5.22;4.82;;;;;;;;;;5099395;28;20203;-65
2023/07/09 09:07:30;;;;;;;4.97;4.68;;;;;;;;;;5098614;28;20302;-65
2023/07/09 09:10:00;;;;;;;5.00;4.50;;;;;;;;;;5099179;28;20223;-65
2023/07/09 09:12:32;;;;;;;5.78;5.32;;;;;;;;;;5097778;28;20204;-66
2023/07/09 09:15:01;;;;;;;5.20;4.80;;;;;;;;;;5098708;28;20291;-65
2023/07/09 09:17:29;;;;;;;5.45;5.05;;;;;;;;;;5098632;28;20215;-65
2023/07/09 09:20:01;;;;;;;5.38;4.97;;;;;;;;;;5098795;28;20200;-65
2023/07/09 09:22:32;;;;;;;5.25;4.85;;;;;;;;;;5098396;28;20211;-67
2023/07/09 09:25:04;;;;;;;5.80;5.30;;;;;;;;;;5097993;28;20269;-65
2023/07/09 09:27:31;;;;;;;5.70;5.20;;;;;;;;;;5098314;28;20214;-66
2023/07/09 09:29:58;;;;;;;5.68;5.18;;;;;;;;;;5098582;28;20224;-66
2023/07/09 09:32:27;;;;;;;5.18;4.78;;;;;;;;;;5098712;28;20203;-65
2023/07/09 09:34:55;;;;;;;5.70;5.30;;;;;;;;;;5098067;28;20203;-65
2023/07/09 09:37:28;;;;;;;5.13;4.72;;;;;;;;;;5098505;28;20457;-65
2023/07/09 09:39:56;;;;;;;5.38;4.88;;;;;;;;;;5098459;28;20738;-65
2023/07/09 09:42:25;;;;;;;5.22;4.82;;;;;;;;;;5098420;28;20218;-65
2023/07/09 09:44:55;;;;;;;5.82;5.32;;;;;;;;;;5098402;28;20204;-65
2023/07/09 09:47:23;;;;;;;5.50;5.00;;;;;;;;;;5098360;28;20214;-65
2023/07/09 09:49:50;;;;;;;5.63;5.22;;;;;;;;;;5098497;28;20272;-65
2023/07/09 09:52:19;;;;;;;5.70;5.20;;;;;;;;;;5097769;28;20204;-66
2023/07/09 09:54:52;;;;;;;5.35;4.93;;;;;;;;;;5097953;28;20292;-68
2023/07/09 09:57:21;;;;;;;5.80;5.25;;;;;;;;;;5097379;28;20513;-66
2023/07/09 09:59:49;;;;;;;5.55;5.05;;;;;;;;;;5097656;28;20203;-66
2023/07/09 10:02:18;;;;;;;5.43;5.03;;;;;;;;;;5097766;28;20230;-66
2023/07/09 10:04:45;;;;;;;5.25;4.85;;;;;;;;;;5097894;28;20249;-66
2023/07/09 10:07:20;;;;;;;5.60;5.10;;;;;;;;;;5097331;28;20196;-67
2023/07/09 10:09:50;;;;;;;5.53;5.03;;;;;;;;;;5097642;28;20571;-67
2023/07/09 10:12:26;;;;;;;5.25;4.85;;;;;;;;;;5097559;28;20321;-66
2023/07/09 10:14:55;;;;;;;5.80;5.40;;;;;;;;;;5097870;28;20209;-66
2023/07/09 10:17:24;;;;;;;5.53;5.10;;;;;;;;;;5097861;28;20667;-66
2023/07/09 10:19:58;;;;;;;5.55;5.05;;;;;;;;;;5096912;28;20204;-66
2023/07/09 10:22:38;;;;;;;5.28;4.82;;;;;;;;;;5097411;28;20210;-66
2023/07/09 10:25:13;;;;;;;4.97;4.57;;;;;;;;;;5096938;28;20209;-66
2023/07/09 10:27:45;;;;;;;5.20;4.80;;;;;;;;;;5096561;28;20211;-66
2023/07/09 10:30:24;;;;;;;5.80;5.30;;;;;;;;;;5095954;28;20204;-66
2023/07/09 10:32:59;;;;;;;5.57;5.07;;;;;;;;;;5096419;28;20205;-66
2023/07/09 10:35:30;;;;;;;5.55;5.05;;;;;;;;;;5096842;28;20203;-66
2023/07/09 10:38:08;;;;;;;5.72;5.20;;;;;;;;;;5096214;28;20230;-66
2023/07/09 10:40:40;;;;;;;5.32;4.93;;;;;;;;;;5096746;28;20213;-66
2023/07/09 10:43:08;;;;;;;5.85;5.35;;;;;;;;;;5096017;28;20579;-66
2023/07/09 10:45:41;;;;;;;5.55;5.05;;;;;;;;;;5096561;28;20195;-66
2023/07/09 10:48:12;;;;;;;5.22;4.82;;;;;;;;;;5096043;28;20204;-66
2023/07/09 10:50:42;;;;;;;5.65;5.15;;;;;;;;;;5095578;28;20238;-66
2023/07/09 10:53:13;;;;;;;5.10;4.70;;;;;;;;;;5096282;28;20196;-66
2023/07/09 10:55:45;;;;;;;6.00;5.50;;;;;;;;;;5096176;28;20212;-66
2023/07/09 10:58:20;;;;;;;5.10;4.70;;;;;;;;;;5096459;28;20586;-66
2023/07/09 11:00:47;;;;;;;5.63;5.13;;;;;;;;;;5095345;28;20201;-66
2023/07/09 11:03:19;;;;;;;5.97;5.47;;;;;;;;;;5096435;28;20246;-66
2023/07/09 11:05:47;;;;;;;5.55;4.85;;;;;;;;;;5096438;28;20218;-66
2023/07/09 11:08:16;;;;;;;5.45;5.03;;;;;;;;;;5095147;28;20214;-66
2023/07/09 11:10:48;;;;;;;5.97;5.35;;;;;;;;;;5095668;28;20223;-66
2023/07/09 11:13:17;;;;;;;5.70;5.10;;;;;;;;;;5096111;28;20257;-67
2023/07/09 11:15:48;;;;;;;5.40;4.90;;;;;;;;;;5095473;28;20235;-66
2023/07/09 11:18:18;;;;;;;5.43;5.00;;;;;;;;;;5095338;28;20205;-66
2023/07/09 11:20:47;;;;;;;5.38;4.88;;;;;;;;;;5095747;28;20287;-66
2023/07/09 11:23:20;;;;;;;5.60;5.10;;;;;;;;;;5095341;28;20552;-66
2023/07/09 11:25:50;;;;;;;5.25;4.75;;;;;;;;;;5095969;28;20567;-66
2023/07/09 11:28:17;;;;;;;5.82;5.32;;;;;;;;;;5095713;28;20211;-66
2023/07/09 11:30:50;;;;;;;5.78;5.28;;;;;;;;;;5095061;28;20222;-66
2023/07/09 11:33:19;;;;;;;5.72;5.22;;;;;;;;;;5095339;28;20307;-66
2023/07/09 11:35:48;;;;;;;5.68;5.18;;;;;;;;;;5097306;28;20204;-66
2023/07/09 11:38:18;;;;;;;6.15;5.65;;;;;;;;;;5099892;28;20211;-66
2023/07/09 11:40:51;;;;;;;5.85;5.35;;;;;;;;;;5099640;28;20264;-66
2023/07/09 11:43:30;;;;;;;5.88;5.40;;;;;;;;;;5099573;28;20651;-67
2023/07/09 11:45:59;;;;;;;5.20;4.80;;;;;;;;;;5098945;28;20211;-66
2023/07/09 11:48:27;;;;;;;5.65;5.15;;;;;;;;;;5099405;28;20207;-66
2023/07/09 11:50:56;;;;;;;5.70;5.20;;;;;;;;;;5098794;28;20243;-66
2023/07/09 11:53:30;;;;;;;5.07;4.57;;;;;;;;;;5099214;28;20228;-66
2023/07/09 11:55:59;;;;;;;5.22;4.82;;;;;;;;;;5100049;28;20246;-66
2023/07/09 11:58:26;;;;;;;5.43;5.03;;;;;;;;;;5099458;28;20208;-66
2023/07/09 12:00:56;;;;;;;5.70;5.15;;;;;;;;;;5099240;28;20552;-66
2023/07/09 12:03:25;;;;;;;5.68;5.18;;;;;;;;;;5099172;28;20214;-66
2023/07/09 12:05:54;;;;;;;5.40;4.90;;;;;;;;;;5099125;28;20200;-66
2023/07/09 12:08:24;;;;;;;5.80;5.30;;;;;;;;;;5099681;28;20203;-66
2023/07/09 12:10:52;;;;;;;5.80;5.25;;;;;;;;;;5099110;28;20611;-67
2023/07/09 12:13:21;;;;;;;5.80;5.30;;;;;;;;;;5098813;28;20204;-66
2023/07/09 12:15:49;;;;;;;6.00;5.50;;;;;;;;;;5099519;28;20204;-66
2023/07/09 12:18:17;;;;;;;6.20;5.70;;;;;;;;;;5099458;28;20641;-66
2023/07/09 12:20:48;;;;;;;5.70;5.20;;;;;;;;;;5099380;28;20207;-66
2023/07/09 12:23:21;;;;;;;5.85;5.35;;;;;;;;;;5099058;28;20196;-66
2023/07/09 12:25:50;;;;;;;5.25;4.85;;;;;;;;;;5099548;28;20559;-66
2023/07/09 12:28:18;;;;;;;5.70;5.20;;;;;;;;;;5098966;28;20689;-66
2023/07/09 12:30:48;;;;;;;5.38;4.88;;;;;;;;;;5098628;28;20200;-67
2023/07/09 12:33:18;;;;;;;5.97;5.47;;;;;;;;;;5098831;28;20214;-66
2023/07/09 12:35:45;;;;;;;7.25;5.18;;;;;;;;;;5099273;28;20210;-66
2023/07/09 12:38:19;;;;;;;5.22;4.82;;;;;;;;;;5098656;28;20203;-66
2023/07/09 12:40:46;;;;;;;5.43;5.00;;;;;;;;;;5098590;28;20478;-66
2023/07/09 12:43:13;;;;;;;5.55;5.05;;;;;;;;;;5098798;28;20203;-66
2023/07/09 12:45:41;;;;;;;5.57;5.10;;;;;;;;;;5097513;28;20492;-66
2023/07/09 12:48:12;;;;;;;5.00;4.60;;;;;;;;;;5097816;28;20203;-66
2023/07/09 12:50:40;;;;;;;5.03;4.63;;;;;;;;;;5096193;28;20199;-66
2023/07/09 12:53:14;;;;;;;5.38;4.97;;;;;;;;;;5097083;28;20204;-66
2023/07/09 12:55:43;;;;;;;5.38;4.88;;;;;;;;;;5097724;28;20210;-66
2023/07/09 12:58:12;;;;;;;5.47;5.07;;;;;;;;;;5097662;28;20230;-66
2023/07/09 13:00:39;;;;;;;5.90;5.40;;;;;;;;;;5097121;28;20322;-67
2023/07/09 13:03:13;;;;;;;5.53;5.03;;;;;;;;;;5097538;28;20207;-66
2023/07/09 13:05:53;;;;;;;5.43;5.03;;;;;;;;;;5097378;28;20476;-66
2023/07/09 13:08:20;;;;;;;5.00;4.60;;;;;;;;;;5097090;28;20211;-66
2023/07/09 13:10:50;;;;;;;5.50;5.00;;;;;;;;;;5098037;28;20203;-66
2023/07/09 13:13:18;;;;;;;5.53;5.03;;;;;;;;;;5097236;28;20462;-66
2023/07/09 13:15:46;;;;;;;5.53;5.03;;;;;;;;;;5097592;28;20204;-66
2023/07/09 13:18:14;;;;;;;5.45;4.95;;;;;;;;;;5097459;28;20200;-66
2023/07/09 13:20:43;;;;;;;5.50;5.07;;;;;;;;;;5096978;28;20203;-66
2023/07/09 13:23:12;;;;;;;5.22;4.82;;;;;;;;;;5097544;28;20204;-65
2023/07/09 13:25:40;;;;;;;5.57;5.07;;;;;;;;;;5097452;28;20243;-66
2023/07/09 13:28:10;;;;;;;5.60;5.10;;;;;;;;;;5097610;28;20204;-68
2023/07/09 13:30:38;;;;;;;5.47;5.07;;;;;;;;;;5098468;28;20599;-66
2023/07/09 13:33:09;;;;;;;5.07;4.68;;;;;;;;;;5097872;28;20544;-66
2023/07/09 13:35:38;;;;;;;5.25;4.80;;;;;;;;;;5097721;28;20595;-67
2023/07/09 13:38:13;;;;;;;5.43;5.00;;;;;;;;;;5097751;28;20517;-67
2023/07/09 13:40:40;;;;;;;5.57;5.10;;;;;;;;;;5098619;28;20207;-67
2023/07/09 13:43:09;;;;;;;5.47;5.07;;;;;;;;;;5098276;28;20226;-67
2023/07/09 13:45:37;;;;;;;5.38;4.97;;;;;;;;;;5097749;28;20208;-68
2023/07/09 13:48:06;;;;;;;5.40;4.90;;;;;;;;;;5097933;28;20490;-68
2023/07/09 13:50:36;;;;;;;5.30;4.85;;;;;;;;;;5096903;28;20230;-67
2023/07/09 13:53:05;;;;;;;4.85;4.45;;;;;;;;;;5097373;28;20506;-68
2023/07/09 13:55:34;;;;;;;5.05;4.65;;;;;;;;;;5097878;28;20300;-67
2023/07/09 13:58:01;;;;;;;5.30;4.88;;;;;;;;;;5096984;28;20761;-67
2023/07/09 14:00:32;;;;;;;5.00;4.57;;;;;;;;;;5098048;28;20543;-67
2023/07/09 14:03:01;;;;;;;4.93;4.53;;;;;;;;;;5097541;28;20306;-68
2023/07/09 14:05:28;;;;;;;5.05;4.65;;;;;;;;;;5096021;28;20235;-67
2023/07/09 14:07:56;;;;;;;5.00;4.50;;;;;;;;;;5096562;28;20203;-68
2023/07/09 14:10:25;;;;;;;5.22;4.82;;;;;;;;;;5096689;28;20211;-67
2023/07/09 14:12:56;;;;;;;4.90;4.50;;;;;;;;;;5096306;28;20258;-68
2023/07/09 14:15:23;;;;;;;5.00;4.60;;;;;;;;;;5097568;28;20620;-68
2023/07/09 14:17:51;;;;;;;4.88;4.47;;;;;;;;;;5096769;28;20318;-67
2023/07/09 14:20:20;;;;;;;4.85;4.45;;;;;;;;;;5097166;28;20712;-67
2023/07/09 14:22:49;;;;;;;5.03;4.55;;;;;;;;;;5096450;28;20200;-68
2023/07/09 14:25:22;;;;;;;4.85;4.45;;;;;;;;;;5096986;28;20207;-68
2023/07/09 14:27:51;;;;;;;5.13;4.50;;;;;;;;;;5096399;28;20203;-67
2023/07/09 14:30:22;;;;;;;4.40;4.00;;;;;;;;;;5095926;28;20204;-68
2023/07/09 14:32:50;;;;;;;4.90;4.40;;;;;;;;;;5095468;28;20228;-67
2023/07/09 14:35:19;;;;;;;5.18;4.68;;;;;;;;;;5096446;28;20199;-68
2023/07/09 14:37:48;;;;;;;5.03;4.60;;;;;;;;;;5095745;28;20207;-67
2023/07/09 14:40:16;;;;;;;4.60;4.20;;;;;;;;;;5096370;28;20199;-67
2023/07/09 14:42:44;;;;;;;4.30;3.97;;;;;;;;;;5095769;28;20200;-68
2023/07/09 14:45:23;;;;;;;4.80;4.03;;;;;;;;;;5095991;28;20204;-67
2023/07/09 14:47:50;;;;;;;4.70;4.30;;;;;;;;;;5095891;28;20219;-67
2023/07/09 14:50:18;;;;;;;4.85;4.40;;;;;;;;;;5095842;28;20203;-68
2023/07/09 14:52:46;;;;;;;4.20;3.90;;;;;;;;;;5095711;28;20234;-68
2023/07/09 14:55:17;;;;;;;5.00;4.60;;;;;;;;;;5095227;28;20639;-67